sensor_id;sensor_type;location;lat;lon;timestamp;temperature;humidity
75376;HTU21D;63958;52.004;5.908;2022-12-18T00:00:24;-2.15;79.36
75376;HTU21D;63958;52.004;5.908;2022-12-18T00:02:53;-2.17;79.29
75376;HTU21D;63958;52.004;5.908;2022-12-18T00:05:22;-2.19;79.30
75376;HTU21D;63958;52.004;5.908;2022-12-18T00:07:50;-2.26;79.18
75376;HTU21D;63958;52.004;5.908;2022-12-18T00:10:19;-2.33;79.17
75376;HTU21D;63958;52.004;5.908;2022-12-18T00:12:48;-2.42;79.17
75376;HTU21D;63958;52.004;5.908;2022-12-18T00:15:17;-2.48;79.18
75376;HTU21D;63958;52.004;5.908;2022-12-18T00:17:49;-2.54;79.11
75376;HTU21D;63958;52.004;5.908;2022-12-18T00:20:18;-2.61;79.14
75376;HTU21D;63958;52.004;5.908;2022-12-18T00:22:51;-2.67;79.21
75376;HTU21D;63958;52.004;5.908;2022-12-18T00:25:20;-2.72;79.24
75376;HTU21D;63958;52.004;5.908;2022-12-18T00:27:49;-2.77;79.26
75376;HTU21D;63958;52.004;5.908;2022-12-18T00:30:18;-2.78;79.32
75376;HTU21D;63958;52.004;5.908;2022-12-18T00:32:50;-2.79;79.26
75376;HTU21D;63958;52.004;5.908;2022-12-18T00:35:19;-2.81;79.28
75376;HTU21D;63958;52.004;5.908;2022-12-18T00:37:48;-2.80;79.33
75376;HTU21D;63958;52.004;5.908;2022-12-18T00:40:17;-2.77;79.30
75376;HTU21D;63958;52.004;5.908;2022-12-18T00:42:46;-2.77;79.21
75376;HTU21D;63958;52.004;5.908;2022-12-18T00:45:24;-2.78;79.14
75376;HTU21D;63958;52.004;5.908;2022-12-18T00:47:57;-2.77;79.17
75376;HTU21D;63958;52.004;5.908;2022-12-18T00:50:26;-2.77;79.13
75376;HTU21D;63958;52.004;5.908;2022-12-18T00:52:55;-2.78;79.04
75376;HTU21D;63958;52.004;5.908;2022-12-18T00:55:24;-2.79;79.13
75376;HTU21D;63958;52.004;5.908;2022-12-18T00:57:53;-2.75;79.17
75376;HTU21D;63958;52.004;5.908;2022-12-18T01:00:22;-2.71;79.12
75376;HTU21D;63958;52.004;5.908;2022-12-18T01:02:51;-2.71;78.91
75376;HTU21D;63958;52.004;5.908;2022-12-18T01:05:22;-2.76;78.78
75376;HTU21D;63958;52.004;5.908;2022-12-18T01:07:52;-2.81;78.72
75376;HTU21D;63958;52.004;5.908;2022-12-18T01:10:21;-2.84;78.89
75376;HTU21D;63958;52.004;5.908;2022-12-18T01:12:50;-2.82;79.05
75376;HTU21D;63958;52.004;5.908;2022-12-18T01:15:20;-2.77;78.98
75376;HTU21D;63958;52.004;5.908;2022-12-18T01:17:51;-2.76;78.79
75376;HTU21D;63958;52.004;5.908;2022-12-18T01:20:23;-2.79;78.75
75376;HTU21D;63958;52.004;5.908;2022-12-18T01:22:52;-2.79;78.81
75376;HTU21D;63958;52.004;5.908;2022-12-18T01:25:21;-2.78;78.75
75376;HTU21D;63958;52.004;5.908;2022-12-18T01:27:50;-2.79;78.70
75376;HTU21D;63958;52.004;5.908;2022-12-18T01:30:19;-2.80;78.63
75376;HTU21D;63958;52.004;5.908;2022-12-18T01:32:48;-2.84;78.61
75376;HTU21D;63958;52.004;5.908;2022-12-18T01:35:17;-2.93;78.54
75376;HTU21D;63958;52.004;5.908;2022-12-18T01:37:48;-2.94;78.61
75376;HTU21D;63958;52.004;5.908;2022-12-18T01:40:18;-2.94;78.77
75376;HTU21D;63958;52.004;5.908;2022-12-18T01:42:50;-2.90;78.80
75376;HTU21D;63958;52.004;5.908;2022-12-18T01:45:24;-2.88;78.72
75376;HTU21D;63958;52.004;5.908;2022-12-18T01:47:55;-2.83;78.43
75376;HTU21D;63958;52.004;5.908;2022-12-18T01:50:28;-2.88;78.28
75376;HTU21D;63958;52.004;5.908;2022-12-18T01:53:06;-2.93;78.38
75376;HTU21D;63958;52.004;5.908;2022-12-18T01:55:38;-2.96;78.34
75376;HTU21D;63958;52.004;5.908;2022-12-18T01:58:09;-3.03;78.45
75376;HTU21D;63958;52.004;5.908;2022-12-18T02:00:39;-3.02;78.61
75376;HTU21D;63958;52.004;5.908;2022-12-18T02:03:08;-3.00;78.64
75376;HTU21D;63958;52.004;5.908;2022-12-18T02:05:42;-2.96;78.61
75376;HTU21D;63958;52.004;5.908;2022-12-18T02:08:19;-2.96;78.50
75376;HTU21D;63958;52.004;5.908;2022-12-18T02:10:55;-2.93;78.44
75376;HTU21D;63958;52.004;5.908;2022-12-18T02:13:30;-2.93;78.45
75376;HTU21D;63958;52.004;5.908;2022-12-18T02:16:06;-2.93;78.36
75376;HTU21D;63958;52.004;5.908;2022-12-18T02:18:43;-2.95;78.31
75376;HTU21D;63958;52.004;5.908;2022-12-18T02:21:20;-2.95;78.34
75376;HTU21D;63958;52.004;5.908;2022-12-18T02:23:56;-2.97;78.29
75376;HTU21D;63958;52.004;5.908;2022-12-18T02:26:35;-2.96;78.42
75376;HTU21D;63958;52.004;5.908;2022-12-18T02:29:09;-2.93;78.43
75376;HTU21D;63958;52.004;5.908;2022-12-18T02:31:43;-2.89;78.34
75376;HTU21D;63958;52.004;5.908;2022-12-18T02:34:15;-2.88;78.26
75376;HTU21D;63958;52.004;5.908;2022-12-18T02:36:46;-2.88;78.25
75376;HTU21D;63958;52.004;5.908;2022-12-18T02:39:16;-2.87;78.17
75376;HTU21D;63958;52.004;5.908;2022-12-18T02:41:59;-2.88;78.05
75376;HTU21D;63958;52.004;5.908;2022-12-18T02:44:34;-2.89;78.09
75376;HTU21D;63958;52.004;5.908;2022-12-18T02:47:04;-2.90;78.15
75376;HTU21D;63958;52.004;5.908;2022-12-18T02:49:39;-2.91;78.13
75376;HTU21D;63958;52.004;5.908;2022-12-18T02:52:18;-2.92;78.05
75376;HTU21D;63958;52.004;5.908;2022-12-18T02:55:00;-2.92;78.05
75376;HTU21D;63958;52.004;5.908;2022-12-18T02:57:41;-2.95;78.08
75376;HTU21D;63958;52.004;5.908;2022-12-18T03:00:14;-2.94;78.01
75376;HTU21D;63958;52.004;5.908;2022-12-18T03:02:48;-2.96;78.08
75376;HTU21D;63958;52.004;5.908;2022-12-18T03:05:22;-2.97;78.06
75376;HTU21D;63958;52.004;5.908;2022-12-18T03:07:56;-3.00;77.97
75376;HTU21D;63958;52.004;5.908;2022-12-18T03:10:31;-3.01;78.01
75376;HTU21D;63958;52.004;5.908;2022-12-18T03:13:05;-3.03;78.01
75376;HTU21D;63958;52.004;5.908;2022-12-18T03:15:37;-3.04;77.92
75376;HTU21D;63958;52.004;5.908;2022-12-18T03:18:12;-3.00;78.04
75376;HTU21D;63958;52.004;5.908;2022-12-18T03:20:44;-2.97;77.96
75376;HTU21D;63958;52.004;5.908;2022-12-18T03:23:23;-2.96;77.97
75376;HTU21D;63958;52.004;5.908;2022-12-18T03:25:57;-2.94;77.86
75376;HTU21D;63958;52.004;5.908;2022-12-18T03:28:30;-2.95;77.76
75376;HTU21D;63958;52.004;5.908;2022-12-18T03:31:04;-3.00;77.69
75376;HTU21D;63958;52.004;5.908;2022-12-18T03:33:37;-3.05;77.63
75376;HTU21D;63958;52.004;5.908;2022-12-18T03:36:08;-3.07;77.66
75376;HTU21D;63958;52.004;5.908;2022-12-18T03:38:38;-3.11;77.70
75376;HTU21D;63958;52.004;5.908;2022-12-18T03:41:16;-3.16;77.68
75376;HTU21D;63958;52.004;5.908;2022-12-18T03:44:15;-3.22;77.68
75376;HTU21D;63958;52.004;5.908;2022-12-18T03:46:49;-3.23;77.72
75376;HTU21D;63958;52.004;5.908;2022-12-18T03:49:27;-3.27;77.69
75376;HTU21D;63958;52.004;5.908;2022-12-18T03:52:04;-3.33;77.72
75376;HTU21D;63958;52.004;5.908;2022-12-18T03:54:36;-3.38;77.77
75376;HTU21D;63958;52.004;5.908;2022-12-18T03:57:15;-3.40;77.79
75376;HTU21D;63958;52.004;5.908;2022-12-18T03:59:51;-3.42;77.84
75376;HTU21D;63958;52.004;5.908;2022-12-18T04:02:24;-3.45;77.88
75376;HTU21D;63958;52.004;5.908;2022-12-18T04:04:59;-3.46;77.89
75376;HTU21D;63958;52.004;5.908;2022-12-18T04:07:29;-3.49;77.92
75376;HTU21D;63958;52.004;5.908;2022-12-18T04:09:58;-3.49;77.99
75376;HTU21D;63958;52.004;5.908;2022-12-18T04:12:30;-3.50;78.01
75376;HTU21D;63958;52.004;5.908;2022-12-18T04:15:02;-3.52;78.02
75376;HTU21D;63958;52.004;5.908;2022-12-18T04:17:31;-3.51;78.04
75376;HTU21D;63958;52.004;5.908;2022-12-18T04:20:01;-3.53;78.07
75376;HTU21D;63958;52.004;5.908;2022-12-18T04:22:30;-3.54;78.12
75376;HTU21D;63958;52.004;5.908;2022-12-18T04:24:59;-3.54;78.14
75376;HTU21D;63958;52.004;5.908;2022-12-18T04:27:35;-3.53;78.16
75376;HTU21D;63958;52.004;5.908;2022-12-18T04:30:09;-3.54;78.18
75376;HTU21D;63958;52.004;5.908;2022-12-18T04:32:38;-3.54;78.21
75376;HTU21D;63958;52.004;5.908;2022-12-18T04:35:08;-3.54;78.19
75376;HTU21D;63958;52.004;5.908;2022-12-18T04:37:40;-3.54;78.21
75376;HTU21D;63958;52.004;5.908;2022-12-18T04:40:11;-3.54;78.22
75376;HTU21D;63958;52.004;5.908;2022-12-18T04:42:43;-3.55;78.22
75376;HTU21D;63958;52.004;5.908;2022-12-18T04:45:15;-3.55;78.23
75376;HTU21D;63958;52.004;5.908;2022-12-18T04:47:44;-3.56;78.26
75376;HTU21D;63958;52.004;5.908;2022-12-18T04:50:13;-3.54;78.27
75376;HTU21D;63958;52.004;5.908;2022-12-18T04:52:45;-3.55;78.28
75376;HTU21D;63958;52.004;5.908;2022-12-18T04:55:14;-3.53;78.27
75376;HTU21D;63958;52.004;5.908;2022-12-18T04:57:43;-3.52;78.27
75376;HTU21D;63958;52.004;5.908;2022-12-18T05:00:15;-3.50;78.27
75376;HTU21D;63958;52.004;5.908;2022-12-18T05:02:44;-3.49;78.27
75376;HTU21D;63958;52.004;5.908;2022-12-18T05:05:13;-3.47;78.24
75376;HTU21D;63958;52.004;5.908;2022-12-18T05:07:42;-3.47;78.26
75376;HTU21D;63958;52.004;5.908;2022-12-18T05:10:11;-3.47;78.21
75376;HTU21D;63958;52.004;5.908;2022-12-18T05:12:40;-3.45;78.26
75376;HTU21D;63958;52.004;5.908;2022-12-18T05:15:24;-3.43;78.23
75376;HTU21D;63958;52.004;5.908;2022-12-18T05:17:53;-3.42;78.19
75376;HTU21D;63958;52.004;5.908;2022-12-18T05:20:23;-3.40;78.18
75376;HTU21D;63958;52.004;5.908;2022-12-18T05:22:52;-3.41;78.14
75376;HTU21D;63958;52.004;5.908;2022-12-18T05:25:22;-3.41;78.18
75376;HTU21D;63958;52.004;5.908;2022-12-18T05:27:51;-3.41;78.14
75376;HTU21D;63958;52.004;5.908;2022-12-18T05:30:22;-3.42;78.13
75376;HTU21D;63958;52.004;5.908;2022-12-18T05:32:51;-3.46;78.11
75376;HTU21D;63958;52.004;5.908;2022-12-18T05:35:20;-3.47;78.11
75376;HTU21D;63958;52.004;5.908;2022-12-18T05:37:49;-3.47;78.09
75376;HTU21D;63958;52.004;5.908;2022-12-18T05:40:18;-3.48;78.12
75376;HTU21D;63958;52.004;5.908;2022-12-18T05:42:47;-3.48;78.16
75376;HTU21D;63958;52.004;5.908;2022-12-18T05:45:16;-3.48;78.15
75376;HTU21D;63958;52.004;5.908;2022-12-18T05:47:48;-3.47;78.18
75376;HTU21D;63958;52.004;5.908;2022-12-18T05:50:17;-3.46;78.15
75376;HTU21D;63958;52.004;5.908;2022-12-18T05:52:46;-3.46;78.17
75376;HTU21D;63958;52.004;5.908;2022-12-18T05:55:15;-3.45;78.14
75376;HTU21D;63958;52.004;5.908;2022-12-18T05:57:44;-3.42;78.10
75376;HTU21D;63958;52.004;5.908;2022-12-18T06:00:14;-3.43;78.07
75376;HTU21D;63958;52.004;5.908;2022-12-18T06:02:48;-3.45;78.06
75376;HTU21D;63958;52.004;5.908;2022-12-18T06:05:17;-3.43;78.05
75376;HTU21D;63958;52.004;5.908;2022-12-18T06:07:46;-3.42;78.04
75376;HTU21D;63958;52.004;5.908;2022-12-18T06:10:15;-3.40;78.02
75376;HTU21D;63958;52.004;5.908;2022-12-18T06:12:44;-3.37;78.01
75376;HTU21D;63958;52.004;5.908;2022-12-18T06:15:13;-3.35;77.98
75376;HTU21D;63958;52.004;5.908;2022-12-18T06:17:42;-3.36;77.97
75376;HTU21D;63958;52.004;5.908;2022-12-18T06:20:14;-3.33;77.95
75376;HTU21D;63958;52.004;5.908;2022-12-18T06:22:43;-3.31;77.85
75376;HTU21D;63958;52.004;5.908;2022-12-18T06:25:12;-3.26;77.81
75376;HTU21D;63958;52.004;5.908;2022-12-18T06:27:41;-3.25;77.76
75376;HTU21D;63958;52.004;5.908;2022-12-18T06:30:11;-3.24;77.75
75376;HTU21D;63958;52.004;5.908;2022-12-18T06:32:40;-3.24;77.67
75376;HTU21D;63958;52.004;5.908;2022-12-18T06:35:08;-3.24;77.66
75376;HTU21D;63958;52.004;5.908;2022-12-18T06:37:40;-3.25;77.66
75376;HTU21D;63958;52.004;5.908;2022-12-18T06:40:09;-3.25;77.68
75376;HTU21D;63958;52.004;5.908;2022-12-18T06:42:38;-3.22;77.68
75376;HTU21D;63958;52.004;5.908;2022-12-18T06:45:08;-3.20;77.64
75376;HTU21D;63958;52.004;5.908;2022-12-18T06:47:37;-3.19;77.56
75376;HTU21D;63958;52.004;5.908;2022-12-18T06:50:07;-3.16;77.47
75376;HTU21D;63958;52.004;5.908;2022-12-18T06:52:36;-3.11;77.40
75376;HTU21D;63958;52.004;5.908;2022-12-18T06:55:09;-3.10;77.37
75376;HTU21D;63958;52.004;5.908;2022-12-18T06:57:38;-3.11;77.29
75376;HTU21D;63958;52.004;5.908;2022-12-18T07:00:08;-3.10;77.26
75376;HTU21D;63958;52.004;5.908;2022-12-18T07:02:36;-3.09;77.26
75376;HTU21D;63958;52.004;5.908;2022-12-18T07:05:06;-3.08;77.27
75376;HTU21D;63958;52.004;5.908;2022-12-18T07:07:35;-3.06;77.27
75376;HTU21D;63958;52.004;5.908;2022-12-18T07:10:08;-3.05;77.21
75376;HTU21D;63958;52.004;5.908;2022-12-18T07:12:37;-3.03;77.22
75376;HTU21D;63958;52.004;5.908;2022-12-18T07:15:07;-3.02;77.22
75376;HTU21D;63958;52.004;5.908;2022-12-18T07:17:36;-2.98;77.21
75376;HTU21D;63958;52.004;5.908;2022-12-18T07:20:07;-2.97;77.13
75376;HTU21D;63958;52.004;5.908;2022-12-18T07:22:36;-2.94;77.11
75376;HTU21D;63958;52.004;5.908;2022-12-18T07:25:08;-2.93;77.10
75376;HTU21D;63958;52.004;5.908;2022-12-18T07:27:37;-2.93;77.10
75376;HTU21D;63958;52.004;5.908;2022-12-18T07:30:08;-2.91;77.06
75376;HTU21D;63958;52.004;5.908;2022-12-18T07:32:37;-2.90;77.04
75376;HTU21D;63958;52.004;5.908;2022-12-18T07:35:06;-2.89;76.99
75376;HTU21D;63958;52.004;5.908;2022-12-18T07:37:35;-2.87;76.92
75376;HTU21D;63958;52.004;5.908;2022-12-18T07:40:06;-2.83;76.92
75376;HTU21D;63958;52.004;5.908;2022-12-18T07:42:37;-2.84;76.91
75376;HTU21D;63958;52.004;5.908;2022-12-18T07:45:07;-2.83;76.86
75376;HTU21D;63958;52.004;5.908;2022-12-18T07:47:36;-2.82;76.82
75376;HTU21D;63958;52.004;5.908;2022-12-18T07:50:07;-2.78;76.76
75376;HTU21D;63958;52.004;5.908;2022-12-18T07:52:36;-2.76;76.70
75376;HTU21D;63958;52.004;5.908;2022-12-18T07:55:06;-2.73;76.61
75376;HTU21D;63958;52.004;5.908;2022-12-18T07:57:37;-2.69;76.64
75376;HTU21D;63958;52.004;5.908;2022-12-18T08:00:07;-2.66;76.61
75376;HTU21D;63958;52.004;5.908;2022-12-18T08:02:39;-2.65;76.51
75376;HTU21D;63958;52.004;5.908;2022-12-18T08:05:09;-2.63;76.44
75376;HTU21D;63958;52.004;5.908;2022-12-18T08:07:37;-2.61;76.45
75376;HTU21D;63958;52.004;5.908;2022-12-18T08:10:07;-2.60;76.53
75376;HTU21D;63958;52.004;5.908;2022-12-18T08:12:39;-2.58;76.60
75376;HTU21D;63958;52.004;5.908;2022-12-18T08:15:09;-2.56;76.54
75376;HTU21D;63958;52.004;5.908;2022-12-18T08:17:38;-2.53;76.55
75376;HTU21D;63958;52.004;5.908;2022-12-18T08:20:08;-2.52;76.53
75376;HTU21D;63958;52.004;5.908;2022-12-18T08:22:37;-2.50;76.51
75376;HTU21D;63958;52.004;5.908;2022-12-18T08:25:07;-2.47;76.41
75376;HTU21D;63958;52.004;5.908;2022-12-18T08:27:39;-2.45;76.35
75376;HTU21D;63958;52.004;5.908;2022-12-18T08:30:09;-2.42;76.36
75376;HTU21D;63958;52.004;5.908;2022-12-18T08:32:38;-2.41;76.31
75376;HTU21D;63958;52.004;5.908;2022-12-18T08:35:08;-2.41;76.22
75376;HTU21D;63958;52.004;5.908;2022-12-18T08:37:38;-2.38;76.21
75376;HTU21D;63958;52.004;5.908;2022-12-18T08:40:08;-2.37;76.23
75376;HTU21D;63958;52.004;5.908;2022-12-18T08:42:41;-2.34;76.22
75376;HTU21D;63958;52.004;5.908;2022-12-18T08:45:22;-2.32;76.20
75376;HTU21D;63958;52.004;5.908;2022-12-18T08:47:52;-2.31;76.15
75376;HTU21D;63958;52.004;5.908;2022-12-18T08:50:21;-2.31;76.21
75376;HTU21D;63958;52.004;5.908;2022-12-18T08:52:50;-2.27;76.21
75376;HTU21D;63958;52.004;5.908;2022-12-18T08:55:19;-2.26;76.18
75376;HTU21D;63958;52.004;5.908;2022-12-18T08:57:50;-2.24;76.14
75376;HTU21D;63958;52.004;5.908;2022-12-18T09:00:20;-2.22;76.15
75376;HTU21D;63958;52.004;5.908;2022-12-18T09:02:49;-2.20;76.03
75376;HTU21D;63958;52.004;5.908;2022-12-18T09:05:17;-2.18;76.12
75376;HTU21D;63958;52.004;5.908;2022-12-18T09:07:46;-2.15;76.12
75376;HTU21D;63958;52.004;5.908;2022-12-18T09:10:15;-2.13;76.15
75376;HTU21D;63958;52.004;5.908;2022-12-18T09:12:44;-2.08;76.12
75376;HTU21D;63958;52.004;5.908;2022-12-18T09:15:16;-2.03;76.12
75376;HTU21D;63958;52.004;5.908;2022-12-18T09:17:45;-1.99;76.05
75376;HTU21D;63958;52.004;5.908;2022-12-18T09:20:14;-1.95;76.03
75376;HTU21D;63958;52.004;5.908;2022-12-18T09:22:43;-1.89;76.00
75376;HTU21D;63958;52.004;5.908;2022-12-18T09:25:11;-1.83;75.80
75376;HTU21D;63958;52.004;5.908;2022-12-18T09:27:40;-1.78;75.79
75376;HTU21D;63958;52.004;5.908;2022-12-18T09:30:10;-1.73;75.83
75376;HTU21D;63958;52.004;5.908;2022-12-18T09:32:42;-1.67;75.89
75376;HTU21D;63958;52.004;5.908;2022-12-18T09:35:10;-1.59;75.86
75376;HTU21D;63958;52.004;5.908;2022-12-18T09:37:39;-1.52;75.63
75376;HTU21D;63958;52.004;5.908;2022-12-18T09:40:13;-1.46;75.40
75376;HTU21D;63958;52.004;5.908;2022-12-18T09:42:45;-1.41;75.25
75376;HTU21D;63958;52.004;5.908;2022-12-18T09:45:17;-1.34;75.15
75376;HTU21D;63958;52.004;5.908;2022-12-18T09:47:51;-1.29;75.05
75376;HTU21D;63958;52.004;5.908;2022-12-18T09:50:24;-1.25;74.80
75376;HTU21D;63958;52.004;5.908;2022-12-18T09:52:58;-1.20;74.68
75376;HTU21D;63958;52.004;5.908;2022-12-18T09:55:30;-1.17;74.42
75376;HTU21D;63958;52.004;5.908;2022-12-18T09:58:04;-1.16;74.45
75376;HTU21D;63958;52.004;5.908;2022-12-18T10:00:36;-1.12;74.33
75376;HTU21D;63958;52.004;5.908;2022-12-18T10:03:13;-1.08;74.25
75376;HTU21D;63958;52.004;5.908;2022-12-18T10:05:48;-1.05;74.37
75376;HTU21D;63958;52.004;5.908;2022-12-18T10:08:22;-1.02;74.10
75376;HTU21D;63958;52.004;5.908;2022-12-18T10:10:57;-1.02;73.73
75376;HTU21D;63958;52.004;5.908;2022-12-18T10:13:33;-0.99;73.76
75376;HTU21D;63958;52.004;5.908;2022-12-18T10:16:11;-0.96;73.61
75376;HTU21D;63958;52.004;5.908;2022-12-18T10:19:01;-0.93;73.74
75376;HTU21D;63958;52.004;5.908;2022-12-18T10:21:36;-0.89;73.48
75376;HTU21D;63958;52.004;5.908;2022-12-18T10:24:13;-0.85;73.24
75376;HTU21D;63958;52.004;5.908;2022-12-18T10:26:43;-0.82;73.14
75376;HTU21D;63958;52.004;5.908;2022-12-18T10:29:14;-0.77;73.34
75376;HTU21D;63958;52.004;5.908;2022-12-18T10:31:44;-0.74;73.09
75376;HTU21D;63958;52.004;5.908;2022-12-18T10:34:15;-0.71;73.02
75376;HTU21D;63958;52.004;5.908;2022-12-18T10:36:44;-0.66;72.87
75376;HTU21D;63958;52.004;5.908;2022-12-18T10:39:18;-0.65;72.94
75376;HTU21D;63958;52.004;5.908;2022-12-18T10:41:49;-0.60;72.61
75376;HTU21D;63958;52.004;5.908;2022-12-18T10:44:19;-0.56;72.71
75376;HTU21D;63958;52.004;5.908;2022-12-18T10:46:50;-0.52;72.63
75376;HTU21D;63958;52.004;5.908;2022-12-18T10:49:24;-0.50;72.19
75376;HTU21D;63958;52.004;5.908;2022-12-18T10:52:05;-0.46;72.25
75376;HTU21D;63958;52.004;5.908;2022-12-18T10:54:35;-0.42;72.08
75376;HTU21D;63958;52.004;5.908;2022-12-18T10:57:15;-0.40;72.16
75376;HTU21D;63958;52.004;5.908;2022-12-18T10:59:52;-0.38;71.88
75376;HTU21D;63958;52.004;5.908;2022-12-18T11:02:27;-0.35;71.96
75376;HTU21D;63958;52.004;5.908;2022-12-18T11:04:59;-0.31;71.79
75376;HTU21D;63958;52.004;5.908;2022-12-18T11:07:47;-0.27;72.00
75376;HTU21D;63958;52.004;5.908;2022-12-18T11:10:18;-0.22;71.71
75376;HTU21D;63958;52.004;5.908;2022-12-18T11:12:48;-0.20;71.42
75376;HTU21D;63958;52.004;5.908;2022-12-18T11:15:20;-0.15;71.71
75376;HTU21D;63958;52.004;5.908;2022-12-18T11:17:50;-0.11;71.64
75376;HTU21D;63958;52.004;5.908;2022-12-18T11:20:30;-0.07;71.61
75376;HTU21D;63958;52.004;5.908;2022-12-18T11:23:01;-0.02;71.40
75376;HTU21D;63958;52.004;5.908;2022-12-18T11:25:32;0.02;71.21
75376;HTU21D;63958;52.004;5.908;2022-12-18T11:28:04;0.06;71.06
75376;HTU21D;63958;52.004;5.908;2022-12-18T11:30:35;0.10;70.53
75376;HTU21D;63958;52.004;5.908;2022-12-18T11:33:06;0.13;70.65
75376;HTU21D;63958;52.004;5.908;2022-12-18T11:35:44;0.15;70.21
75376;HTU21D;63958;52.004;5.908;2022-12-18T11:38:21;0.19;70.42
75376;HTU21D;63958;52.004;5.908;2022-12-18T11:40:56;0.21;69.50
75376;HTU21D;63958;52.004;5.908;2022-12-18T11:43:29;0.27;69.52
75376;HTU21D;63958;52.004;5.908;2022-12-18T11:46:03;0.30;69.59
75376;HTU21D;63958;52.004;5.908;2022-12-18T11:48:35;0.32;68.76
75376;HTU21D;63958;52.004;5.908;2022-12-18T11:51:11;0.35;68.91
75376;HTU21D;63958;52.004;5.908;2022-12-18T11:53:41;0.38;68.84
75376;HTU21D;63958;52.004;5.908;2022-12-18T11:56:26;0.40;69.09
75376;HTU21D;63958;52.004;5.908;2022-12-18T11:59:04;0.46;68.89
75376;HTU21D;63958;52.004;5.908;2022-12-18T12:01:44;0.50;68.69
75376;HTU21D;63958;52.004;5.908;2022-12-18T12:07:13;0.53;68.27
75376;HTU21D;63958;52.004;5.908;2022-12-18T12:09:56;0.54;68.04
75376;HTU21D;63958;52.004;5.908;2022-12-18T12:12:36;0.57;68.36
75376;HTU21D;63958;52.004;5.908;2022-12-18T12:15:23;0.60;68.22
75376;HTU21D;63958;52.004;5.908;2022-12-18T12:17:58;0.64;68.20
75376;HTU21D;63958;52.004;5.908;2022-12-18T12:20:37;0.65;68.08
75376;HTU21D;63958;52.004;5.908;2022-12-18T12:23:17;0.67;67.84
75376;HTU21D;63958;52.004;5.908;2022-12-18T12:25:52;0.71;67.74
75376;HTU21D;63958;52.004;5.908;2022-12-18T12:28:42;0.72;67.62
75376;HTU21D;63958;52.004;5.908;2022-12-18T12:31:21;0.75;67.36
75376;HTU21D;63958;52.004;5.908;2022-12-18T12:33:57;0.76;67.36
75376;HTU21D;63958;52.004;5.908;2022-12-18T12:36:38;0.79;67.07
75376;HTU21D;63958;52.004;5.908;2022-12-18T12:39:16;0.81;67.14
75376;HTU21D;63958;52.004;5.908;2022-12-18T12:41:46;0.82;66.84
75376;HTU21D;63958;52.004;5.908;2022-12-18T12:44:32;0.83;66.64
75376;HTU21D;63958;52.004;5.908;2022-12-18T12:47:14;0.84;66.57
75376;HTU21D;63958;52.004;5.908;2022-12-18T12:49:45;0.88;66.82
75376;HTU21D;63958;52.004;5.908;2022-12-18T12:52:18;0.89;66.74
75376;HTU21D;63958;52.004;5.908;2022-12-18T12:54:53;0.90;66.82
75376;HTU21D;63958;52.004;5.908;2022-12-18T12:57:26;0.92;66.88
75376;HTU21D;63958;52.004;5.908;2022-12-18T13:00:01;0.93;66.77
75376;HTU21D;63958;52.004;5.908;2022-12-18T13:02:36;0.95;66.50
75376;HTU21D;63958;52.004;5.908;2022-12-18T13:05:16;0.95;66.66
75376;HTU21D;63958;52.004;5.908;2022-12-18T13:07:51;0.97;66.53
75376;HTU21D;63958;52.004;5.908;2022-12-18T13:10:33;0.98;66.36
75376;HTU21D;63958;52.004;5.908;2022-12-18T13:13:04;0.98;65.55
75376;HTU21D;63958;52.004;5.908;2022-12-18T13:15:34;0.99;65.75
75376;HTU21D;63958;52.004;5.908;2022-12-18T13:18:21;1.01;65.88
75376;HTU21D;63958;52.004;5.908;2022-12-18T13:21:01;1.02;65.89
75376;HTU21D;63958;52.004;5.908;2022-12-18T13:23:33;1.02;65.67
75376;HTU21D;63958;52.004;5.908;2022-12-18T13:26:32;1.03;65.86
75376;HTU21D;63958;52.004;5.908;2022-12-18T13:29:02;1.04;65.98
75376;HTU21D;63958;52.004;5.908;2022-12-18T13:34:37;1.06;65.43
75376;HTU21D;63958;52.004;5.908;2022-12-18T13:37:40;1.06;65.44
75376;HTU21D;63958;52.004;5.908;2022-12-18T13:43:21;1.05;65.15
75376;HTU21D;63958;52.004;5.908;2022-12-18T13:46:04;1.05;65.17
75376;HTU21D;63958;52.004;5.908;2022-12-18T13:48:35;1.08;65.15
75376;HTU21D;63958;52.004;5.908;2022-12-18T13:51:07;1.09;65.33
75376;HTU21D;63958;52.004;5.908;2022-12-18T13:53:42;1.10;65.41
75376;HTU21D;63958;52.004;5.908;2022-12-18T13:56:16;1.12;65.32
75376;HTU21D;63958;52.004;5.908;2022-12-18T13:59:03;1.12;65.46
75376;HTU21D;63958;52.004;5.908;2022-12-18T14:01:34;1.14;64.95
75376;HTU21D;63958;52.004;5.908;2022-12-18T14:04:10;1.16;64.87
75376;HTU21D;63958;52.004;5.908;2022-12-18T14:06:39;1.14;64.76
75376;HTU21D;63958;52.004;5.908;2022-12-18T14:09:13;1.17;64.89
75376;HTU21D;63958;52.004;5.908;2022-12-18T14:11:46;1.18;64.86
75376;HTU21D;63958;52.004;5.908;2022-12-18T14:14:19;1.19;64.89
75376;HTU21D;63958;52.004;5.908;2022-12-18T14:16:48;1.20;65.12
75376;HTU21D;63958;52.004;5.908;2022-12-18T14:19:17;1.19;64.82
75376;HTU21D;63958;52.004;5.908;2022-12-18T14:21:48;1.19;64.92
75376;HTU21D;63958;52.004;5.908;2022-12-18T14:24:20;1.20;64.80
75376;HTU21D;63958;52.004;5.908;2022-12-18T14:26:50;1.23;65.04
75376;HTU21D;63958;52.004;5.908;2022-12-18T14:29:27;1.22;64.85
75376;HTU21D;63958;52.004;5.908;2022-12-18T14:32:10;1.23;65.09
75376;HTU21D;63958;52.004;5.908;2022-12-18T14:34:42;1.24;64.88
75376;HTU21D;63958;52.004;5.908;2022-12-18T14:37:11;1.25;64.87
75376;HTU21D;63958;52.004;5.908;2022-12-18T14:39:52;1.25;65.16
75376;HTU21D;63958;52.004;5.908;2022-12-18T14:42:21;1.26;64.80
75376;HTU21D;63958;52.004;5.908;2022-12-18T14:47:55;1.24;64.95
75376;HTU21D;63958;52.004;5.908;2022-12-18T14:50:24;1.24;64.82
75376;HTU21D;63958;52.004;5.908;2022-12-18T14:52:53;1.24;65.02
75376;HTU21D;63958;52.004;5.908;2022-12-18T14:55:22;1.26;65.10
75376;HTU21D;63958;52.004;5.908;2022-12-18T14:57:52;1.26;64.38
75376;HTU21D;63958;52.004;5.908;2022-12-18T15:00:24;1.25;64.98
75376;HTU21D;63958;52.004;5.908;2022-12-18T15:02:56;1.27;65.34
75376;HTU21D;63958;52.004;5.908;2022-12-18T15:05:28;1.27;65.10
75376;HTU21D;63958;52.004;5.908;2022-12-18T15:07:59;1.28;65.17
75376;HTU21D;63958;52.004;5.908;2022-12-18T15:10:30;1.29;65.19
75376;HTU21D;63958;52.004;5.908;2022-12-18T15:13:08;1.31;65.31
75376;HTU21D;63958;52.004;5.908;2022-12-18T15:15:48;1.29;65.22
75376;HTU21D;63958;52.004;5.908;2022-12-18T15:18:20;1.28;64.99
75376;HTU21D;63958;52.004;5.908;2022-12-18T15:20:52;1.29;64.79
75376;HTU21D;63958;52.004;5.908;2022-12-18T15:23:22;1.28;64.98
75376;HTU21D;63958;52.004;5.908;2022-12-18T15:25:55;1.29;65.21
75376;HTU21D;63958;52.004;5.908;2022-12-18T15:28:27;1.28;65.19
75376;HTU21D;63958;52.004;5.908;2022-12-18T15:31:06;1.27;64.76
75376;HTU21D;63958;52.004;5.908;2022-12-18T15:33:40;1.27;65.19
75376;HTU21D;63958;52.004;5.908;2022-12-18T15:36:11;1.27;65.08
75376;HTU21D;63958;52.004;5.908;2022-12-18T15:38:40;1.27;65.04
75376;HTU21D;63958;52.004;5.908;2022-12-18T15:41:11;1.29;64.96
75376;HTU21D;63958;52.004;5.908;2022-12-18T15:43:42;1.26;64.42
75376;HTU21D;63958;52.004;5.908;2022-12-18T15:46:11;1.27;64.62
75376;HTU21D;63958;52.004;5.908;2022-12-18T15:48:45;1.26;64.56
75376;HTU21D;63958;52.004;5.908;2022-12-18T15:51:17;1.28;64.73
75376;HTU21D;63958;52.004;5.908;2022-12-18T15:53:47;1.25;64.76
75376;HTU21D;63958;52.004;5.908;2022-12-18T15:56:17;1.25;64.74
75376;HTU21D;63958;52.004;5.908;2022-12-18T15:58:59;1.26;64.61
